createdAt,value
2022-12-12T00:01:38.648Z,41.95
2022-12-12T00:04:05.472Z,43.03
2022-12-12T00:06:32.963Z,42.75
2022-12-12T00:08:59.567Z,42.08
2022-12-12T00:11:27.143Z,37.05
2022-12-12T00:13:54.540Z,40.60
2022-12-12T00:16:21.772Z,44.97
2022-12-12T00:18:48.871Z,42.70
2022-12-12T00:21:19.021Z,44.30
2022-12-12T00:23:46.146Z,45.92
2022-12-12T00:26:25.233Z,25.90
2022-12-12T00:28:51.882Z,32.05
2022-12-12T00:31:19.203Z,28.98
2022-12-12T00:33:48.035Z,39.28
2022-12-12T00:36:18.263Z,37.67
2022-12-12T00:38:44.720Z,37.95
2022-12-12T00:41:12.035Z,27.75
2022-12-12T00:43:38.582Z,28.42
2022-12-12T00:46:05.376Z,26.27
2022-12-12T00:48:32.954Z,34.35
2022-12-12T00:51:09.189Z,46.05
2022-12-12T00:53:37.117Z,49.88
2022-12-12T00:56:04.318Z,48.03
2022-12-12T00:58:31.595Z,43.45
2022-12-12T01:01:06.189Z,45.38
2022-12-12T01:03:38.027Z,46.25
2022-12-12T01:06:04.980Z,42.40
2022-12-12T01:08:31.541Z,45.03
2022-12-12T01:10:58.159Z,45.83
2022-12-12T01:13:25.399Z,48.60
2022-12-12T01:15:52.071Z,43.17
2022-12-12T01:18:19.302Z,44.70
2022-12-12T01:20:46.533Z,42.70
2022-12-12T01:23:13.633Z,40.15
2022-12-12T01:25:40.517Z,43.88
2022-12-12T01:28:07.480Z,50.78
2022-12-12T01:30:34.049Z,30.50
2022-12-12T01:33:00.504Z,48.78
2022-12-12T01:35:27.138Z,39.72
2022-12-12T01:37:54.316Z,34.63
2022-12-12T01:40:24.065Z,43.20
2022-12-12T01:42:51.238Z,40.83
2022-12-12T01:45:55.670Z,40.45
2022-12-12T01:48:25.284Z,36.28
2022-12-12T01:50:52.065Z,35.13
2022-12-12T01:53:19.822Z,43.95
2022-12-12T01:55:48.247Z,42.20
2022-12-12T01:58:16.179Z,38.13
2022-12-12T02:00:43.379Z,36.28
2022-12-12T02:03:09.946Z,37.35
2022-12-12T02:05:41.572Z,34.80
2022-12-12T02:08:09.668Z,43.78
2022-12-12T02:10:36.500Z,39.03
2022-12-12T02:13:07.001Z,37.47
2022-12-12T02:15:44.550Z,41.88
2022-12-12T02:18:53.031Z,27.30
2022-12-12T02:21:34.665Z,45.03
2022-12-12T02:24:10.264Z,49.55
2022-12-12T02:27:10.564Z,41.60
2022-12-12T02:30:03.904Z,28.50
2022-12-12T02:33:05.399Z,43.13
2022-12-12T02:35:35.081Z,44.55
2022-12-12T02:38:12.972Z,42.95
2022-12-12T02:41:09.269Z,46.55
2022-12-12T02:44:13.338Z,41.65
2022-12-12T02:47:18.574Z,38.50
2022-12-12T02:50:11.228Z,46.20
2022-12-12T02:52:37.963Z,44.00
2022-12-12T02:55:06.447Z,45.90
2022-12-12T02:57:33.265Z,45.42
2022-12-12T03:00:05.695Z,30.48
2022-12-12T03:03:23.918Z,44.50
2022-12-12T03:06:37.773Z,42.47
2022-12-12T03:09:18.833Z,40.58
2022-12-12T03:12:16.156Z,47.25
2022-12-12T03:15:10.319Z,42.40
2022-12-12T03:17:45.831Z,43.97
2022-12-12T03:20:22.837Z,44.95
2022-12-12T03:23:07.569Z,40.85
2022-12-12T03:25:45.201Z,48.60
2022-12-12T03:28:31.913Z,41.03
2022-12-12T03:31:03.872Z,43.92
2022-12-12T03:33:39.868Z,44.95
2022-12-12T03:36:14.503Z,42.47
2022-12-12T03:38:59.017Z,43.63
2022-12-12T03:41:37.005Z,45.47
2022-12-12T03:44:49.988Z,42.05
2022-12-12T03:47:26.308Z,42.42
2022-12-12T03:50:04.623Z,40.97
2022-12-12T03:52:41.123Z,41.67
2022-12-12T03:55:11.302Z,44.50
2022-12-12T03:58:13.519Z,41.38
2022-12-12T04:00:42.212Z,40.58
2022-12-12T04:03:22.970Z,38.20
2022-12-12T04:06:13.487Z,39.58
2022-12-12T04:09:00.387Z,42.88
2022-12-12T04:12:03.966Z,39.15
2022-12-12T04:15:03.309Z,42.15
2022-12-12T04:17:38.385Z,37.97
2022-12-12T04:20:30.475Z,41.53
2022-12-12T04:23:15.369Z,38.90
2022-12-12T04:26:16.636Z,38.50
2022-12-12T04:28:52.994Z,38.47
2022-12-12T04:31:25.276Z,36.05
2022-12-12T04:33:56.900Z,44.03
2022-12-12T04:36:24.673Z,43.90
2022-12-12T04:38:52.882Z,35.83
2022-12-12T04:41:22.447Z,39.42
2022-12-12T04:43:50.704Z,43.83
2022-12-12T04:46:21.692Z,40.40
2022-12-12T04:48:53.974Z,39.47
2022-12-12T04:51:28.242Z,35.67
2022-12-12T04:54:24.937Z,37.13
2022-12-12T04:56:56.593Z,36.67
2022-12-12T04:59:23.585Z,36.50
2022-12-12T05:02:08.308Z,35.53
2022-12-12T05:04:49.636Z,36.53
2022-12-12T05:07:24.582Z,35.00
2022-12-12T05:09:51.255Z,21.67
2022-12-12T05:12:17.913Z,26.08
2022-12-12T05:14:44.445Z,18.55
2022-12-12T05:17:16.595Z,18.08
2022-12-12T05:19:43.119Z,23.42
2022-12-12T05:22:09.565Z,16.77
2022-12-12T05:24:35.987Z,16.85
2022-12-12T05:27:02.479Z,27.88
2022-12-12T05:29:28.983Z,34.40
2022-12-12T05:31:55.419Z,35.08
2022-12-12T05:34:21.901Z,30.80
2022-12-12T05:36:48.657Z,31.55
2022-12-12T05:39:15.120Z,32.28
2022-12-12T05:41:41.847Z,30.05
2022-12-12T05:44:08.371Z,32.33
2022-12-12T05:46:34.912Z,28.90
2022-12-12T05:49:01.500Z,31.58
2022-12-12T05:51:28.051Z,34.25
2022-12-12T05:53:54.519Z,31.77
2022-12-12T05:56:21.067Z,31.10
2022-12-12T05:58:47.556Z,24.15
2022-12-12T06:01:14.562Z,30.40
2022-12-12T06:03:41.185Z,33.17
2022-12-12T06:06:07.840Z,34.78
2022-12-12T06:08:34.505Z,33.42
2022-12-12T06:11:01.003Z,36.45
2022-12-12T06:13:27.464Z,33.50
2022-12-12T06:15:53.943Z,31.35
2022-12-12T06:18:20.499Z,33.08
2022-12-12T06:20:47.013Z,32.70
2022-12-12T06:23:13.480Z,30.25
2022-12-12T06:25:40.100Z,35.78
2022-12-12T06:28:07.171Z,31.33
2022-12-12T06:30:33.811Z,25.42
2022-12-12T06:33:00.328Z,22.88
2022-12-12T06:35:26.824Z,19.02
2022-12-12T06:37:53.348Z,28.05
2022-12-12T06:40:19.877Z,27.75
2022-12-12T06:42:48.559Z,24.58
2022-12-12T06:45:16.515Z,27.58
2022-12-12T06:47:43.139Z,17.88
2022-12-12T06:50:10.020Z,28.52
2022-12-12T06:52:36.477Z,30.27
2022-12-12T06:55:03.527Z,24.83
2022-12-12T06:57:30.016Z,20.75
2022-12-12T06:59:56.571Z,19.73
2022-12-12T07:02:29.267Z,16.00
2022-12-12T07:04:56.738Z,19.25
2022-12-12T07:07:23.252Z,32.33
2022-12-12T07:09:49.832Z,30.17
2022-12-12T07:12:17.640Z,20.85
2022-12-12T07:14:44.146Z,21.50
2022-12-12T07:17:10.663Z,21.30
2022-12-12T07:19:37.128Z,21.42
2022-12-12T07:22:09.340Z,25.17
2022-12-12T07:24:37.258Z,29.20
2022-12-12T07:27:03.971Z,21.73
2022-12-12T07:29:30.633Z,17.55
2022-12-12T07:31:57.391Z,30.67
2022-12-12T07:34:23.940Z,25.17
2022-12-12T07:36:50.383Z,60.47
2022-12-12T07:39:20.613Z,34.80
2022-12-12T07:41:48.312Z,35.38
2022-12-12T07:44:16.414Z,31.08
2022-12-12T07:46:43.105Z,38.42
2022-12-12T07:49:09.656Z,22.63
2022-12-12T07:51:36.370Z,26.90
2022-12-12T07:54:02.929Z,28.38
2022-12-12T07:56:29.412Z,26.75
2022-12-12T07:58:55.935Z,32.90
2022-12-12T08:01:26.005Z,34.28
2022-12-12T08:03:54.582Z,24.48
2022-12-12T08:06:22.554Z,25.02
2022-12-12T08:08:50.099Z,30.67
2022-12-12T08:11:19.887Z,27.75
2022-12-12T08:13:46.749Z,35.33
2022-12-12T08:16:20.127Z,22.10
2022-12-12T08:18:47.012Z,19.80
2022-12-12T08:21:17.687Z,31.92
2022-12-12T08:23:47.919Z,30.35
2022-12-12T08:26:17.238Z,30.08
2022-12-12T08:28:45.711Z,33.13
2022-12-12T08:31:20.494Z,23.38
2022-12-12T08:33:47.494Z,26.75
2022-12-12T08:36:17.181Z,27.88
2022-12-12T08:38:44.299Z,29.98
2022-12-12T08:41:11.886Z,22.45
2022-12-12T08:43:40.351Z,16.80
2022-12-12T08:46:13.674Z,27.70
2022-12-12T08:48:43.458Z,27.83
2022-12-12T08:51:10.060Z,29.48
2022-12-12T08:53:36.561Z,30.50
2022-12-12T08:56:03.110Z,31.30
2022-12-12T08:58:29.712Z,28.73
2022-12-12T09:00:56.740Z,25.75
2022-12-12T09:03:29.008Z,24.60
2022-12-12T09:05:56.100Z,27.50
2022-12-12T09:08:22.712Z,29.83
2022-12-12T09:10:50.608Z,24.15
2022-12-12T09:13:18.008Z,26.52
2022-12-12T09:15:44.496Z,31.83
2022-12-12T09:18:10.948Z,28.85
2022-12-12T09:20:37.436Z,27.67
2022-12-12T09:23:03.920Z,27.58
2022-12-12T09:25:30.447Z,28.30
2022-12-12T09:27:57.347Z,23.95
2022-12-12T09:30:23.838Z,25.45
2022-12-12T09:32:50.314Z,21.85
2022-12-12T09:35:16.926Z,23.52
2022-12-12T09:37:43.386Z,30.25
2022-12-12T09:40:19.130Z,28.75
2022-12-12T09:42:51.530Z,29.80
2022-12-12T09:45:20.016Z,28.42
2022-12-12T09:47:53.260Z,34.08
2022-12-12T09:50:42.227Z,29.70
2022-12-12T09:53:15.648Z,26.98
2022-12-12T09:55:51.416Z,27.55
2022-12-12T09:58:26.884Z,24.52
2022-12-12T10:01:14.324Z,34.50
2022-12-12T10:04:03.436Z,32.35
2022-12-12T10:06:37.601Z,31.13
2022-12-12T10:10:01.295Z,26.20
2022-12-12T10:12:29.452Z,29.20
2022-12-12T10:15:05.300Z,28.23
2022-12-12T10:17:40.812Z,25.80
2022-12-12T10:20:21.583Z,38.42
2022-12-12T10:22:56.084Z,23.20
2022-12-12T10:25:37.876Z,17.35
2022-12-12T10:28:17.241Z,19.98
2022-12-12T10:30:54.658Z,26.52
2022-12-12T10:36:22.850Z,26.52
2022-12-12T10:38:55.010Z,34.08
2022-12-12T10:41:43.366Z,30.85
2022-12-12T10:44:26.063Z,35.67
2022-12-12T10:47:11.772Z,29.05
2022-12-12T10:49:39.183Z,29.02
2022-12-12T10:52:16.825Z,27.33
2022-12-12T10:54:58.840Z,29.45
2022-12-12T10:57:27.967Z,33.50
2022-12-12T10:59:58.731Z,34.53
2022-12-12T11:02:40.808Z,28.83
2022-12-12T11:05:19.758Z,27.50
2022-12-12T11:07:49.033Z,30.70
2022-12-12T11:10:33.612Z,26.20
2022-12-12T11:13:15.282Z,23.83
2022-12-12T11:15:44.775Z,32.22
2022-12-12T11:18:16.526Z,27.55
2022-12-12T11:20:49.590Z,30.60
2022-12-12T11:23:19.967Z,20.02
2022-12-12T11:25:54.237Z,22.67
2022-12-12T11:28:24.095Z,24.00
2022-12-12T11:30:53.847Z,22.83
2022-12-12T11:33:26.633Z,29.02
2022-12-12T11:35:55.580Z,20.45
2022-12-12T11:38:30.689Z,17.50
2022-12-12T11:41:03.109Z,26.48
2022-12-12T11:43:36.991Z,23.33
2022-12-12T11:46:19.386Z,22.63
2022-12-12T11:48:48.530Z,20.50
2022-12-12T11:51:31.633Z,20.52
2022-12-12T11:53:58.306Z,21.55
2022-12-12T11:56:43.422Z,19.80
2022-12-12T11:59:54.875Z,23.60
2022-12-12T12:02:27.351Z,24.77
2022-12-12T12:05:24.852Z,20.05
2022-12-12T12:08:03.283Z,20.77
2022-12-12T12:10:54.066Z,18.88
2022-12-12T12:13:33.445Z,23.38
2022-12-12T12:16:19.329Z,18.15
2022-12-12T12:19:25.163Z,20.13
2022-12-12T12:22:07.423Z,16.40
2022-12-12T12:24:39.831Z,19.90
2022-12-12T12:27:25.097Z,19.98
2022-12-12T12:30:16.813Z,18.98
2022-12-12T12:33:08.668Z,15.48
2022-12-12T12:35:41.118Z,18.45
2022-12-12T12:38:30.532Z,16.30
2022-12-12T12:41:15.960Z,20.15
2022-12-12T12:44:01.083Z,14.88
2022-12-12T12:46:37.554Z,17.50
2022-12-12T12:49:34.987Z,17.92
2022-12-12T12:52:11.713Z,22.63
2022-12-12T12:54:45.837Z,15.07
2022-12-12T12:57:21.711Z,15.63
2022-12-12T12:59:51.584Z,20.23
2022-12-12T13:02:46.180Z,22.13
2022-12-12T13:05:21.640Z,22.65
2022-12-12T13:08:05.299Z,22.48
2022-12-12T13:10:33.054Z,23.77
2022-12-12T13:13:06.297Z,19.25
2022-12-12T13:15:44.037Z,23.92
2022-12-12T13:18:14.492Z,22.42
2022-12-12T13:21:05.193Z,22.55
2022-12-12T13:23:47.007Z,24.52
2022-12-12T13:26:28.491Z,20.15
2022-12-12T13:29:01.667Z,23.92
2022-12-12T13:31:58.966Z,19.48
2022-12-12T13:34:28.683Z,24.13
2022-12-12T13:36:57.188Z,20.42
2022-12-12T13:39:28.852Z,22.48
2022-12-12T13:41:57.616Z,22.40
2022-12-12T13:44:35.622Z,24.23
2022-12-12T13:47:03.996Z,21.00
2022-12-12T13:49:38.996Z,18.27
2022-12-12T13:52:27.863Z,23.15
2022-12-12T13:55:18.343Z,18.33
2022-12-12T13:57:51.010Z,23.58
2022-12-12T14:00:18.803Z,21.10
2022-12-12T14:02:57.979Z,19.40
2022-12-12T14:05:31.963Z,22.35
2022-12-12T14:08:21.473Z,22.92
2022-12-12T14:10:56.288Z,24.23
2022-12-12T14:13:22.706Z,23.05
2022-12-12T14:15:58.330Z,27.60
2022-12-12T14:18:30.473Z,21.83
2022-12-12T14:21:14.426Z,22.70
2022-12-12T14:23:43.565Z,19.60
2022-12-12T14:26:28.606Z,24.85
2022-12-12T14:29:16.851Z,27.38
2022-12-12T14:31:53.475Z,27.50
2022-12-12T14:34:45.318Z,20.95
2022-12-12T14:37:26.954Z,25.08
2022-12-12T14:40:01.529Z,26.60
2022-12-12T14:43:19.384Z,29.02
2022-12-12T14:45:40.704Z,23.20
2022-12-12T14:48:21.151Z,22.25
2022-12-12T14:51:25.917Z,21.98
2022-12-12T14:53:58.575Z,26.02
2022-12-12T14:56:36.806Z,23.08
2022-12-12T14:59:16.391Z,20.65
2022-12-12T15:01:46.677Z,20.23
2022-12-12T15:04:25.599Z,26.05
2022-12-12T15:06:57.067Z,23.13
2022-12-12T15:09:26.016Z,19.58
2022-12-12T15:11:55.002Z,15.38
2022-12-12T15:14:27.099Z,16.13
2022-12-12T15:17:00.411Z,15.07
2022-12-12T15:19:29.927Z,16.83
2022-12-12T15:21:58.225Z,18.13
2022-12-12T15:24:27.695Z,13.73
2022-12-12T15:26:57.914Z,12.70
2022-12-12T15:29:28.015Z,16.17
2022-12-12T15:32:02.063Z,16.88
2022-12-12T15:34:35.648Z,12.10
2022-12-12T15:37:23.684Z,12.50
2022-12-12T15:40:20.013Z,17.83
2022-12-12T15:42:53.599Z,15.50
2022-12-12T15:45:41.951Z,12.57
2022-12-12T15:48:15.622Z,15.77
2022-12-12T15:50:42.066Z,17.83
2022-12-12T15:53:22.501Z,15.35
2022-12-12T15:56:07.128Z,13.52
2022-12-12T15:58:37.805Z,12.00
2022-12-12T16:01:27.866Z,17.75
2022-12-12T16:04:03.482Z,14.45
2022-12-12T16:06:39.048Z,13.63
2022-12-12T16:09:11.322Z,15.73
2022-12-12T16:11:45.412Z,13.35
2022-12-12T16:14:39.505Z,16.17
2022-12-12T16:17:24.763Z,14.90
2022-12-12T16:19:58.170Z,14.05
2022-12-12T16:22:46.718Z,16.05
2022-12-12T16:25:13.136Z,18.85
2022-12-12T16:27:39.668Z,16.40
2022-12-12T16:30:06.741Z,13.48
2022-12-12T16:32:33.659Z,12.38
2022-12-12T16:35:00.092Z,15.88
2022-12-12T16:37:27.570Z,16.13
2022-12-12T16:39:54.066Z,13.98
2022-12-12T16:42:22.041Z,12.85
2022-12-12T16:44:48.684Z,12.38
2022-12-12T16:47:21.320Z,16.20
2022-12-12T16:49:48.206Z,15.18
2022-12-12T16:52:17.764Z,15.77
2022-12-12T16:54:52.824Z,14.25
2022-12-12T16:57:21.016Z,17.48
2022-12-12T16:59:47.710Z,17.02
2022-12-12T17:02:20.406Z,18.88
2022-12-12T17:04:47.359Z,17.98
2022-12-12T17:07:13.998Z,18.17
2022-12-12T17:09:40.556Z,15.55
2022-12-12T17:12:08.934Z,22.08
2022-12-12T17:14:36.208Z,23.88
2022-12-12T17:17:05.977Z,21.85
2022-12-12T17:19:32.726Z,19.35
2022-12-12T17:21:59.209Z,24.23
2022-12-12T17:24:25.726Z,23.60
2022-12-12T17:26:52.207Z,18.55
2022-12-12T17:29:18.797Z,17.52
2022-12-12T17:31:45.376Z,17.92
2022-12-12T17:34:12.055Z,15.07
2022-12-12T17:36:38.570Z,14.38
2022-12-12T17:39:05.574Z,17.67
2022-12-12T17:41:32.098Z,13.98
2022-12-12T17:43:58.646Z,17.38
2022-12-12T17:46:27.758Z,18.27
2022-12-12T17:48:56.780Z,16.55
2022-12-12T17:51:24.303Z,15.93
2022-12-12T17:53:52.479Z,15.68
2022-12-12T17:56:22.673Z,16.38
2022-12-12T17:58:50.156Z,15.40
2022-12-12T18:01:20.959Z,17.05
2022-12-12T18:03:48.289Z,13.88
2022-12-12T18:06:15.532Z,17.20
2022-12-12T18:08:42.861Z,15.18
2022-12-12T18:11:12.708Z,24.33
2022-12-12T18:13:40.666Z,18.63
2022-12-12T18:16:09.002Z,18.38
2022-12-12T18:18:35.718Z,15.70
2022-12-12T18:21:07.718Z,17.35
2022-12-12T18:23:34.312Z,24.05
2022-12-12T18:26:17.265Z,38.05
2022-12-12T18:28:55.964Z,37.35
2022-12-12T18:31:22.712Z,35.85
2022-12-12T18:33:49.255Z,36.28
2022-12-12T18:36:18.619Z,33.10
2022-12-12T18:38:47.818Z,30.88
2022-12-12T18:41:16.246Z,35.92
2022-12-12T18:43:43.154Z,40.78
2022-12-12T18:46:15.600Z,33.95
2022-12-12T18:48:45.200Z,26.15
2022-12-12T18:51:21.390Z,34.70
2022-12-12T18:53:47.920Z,27.55
2022-12-12T18:56:21.044Z,32.05
2022-12-12T18:58:47.906Z,29.65
2022-12-12T19:01:21.222Z,34.60
2022-12-12T19:03:50.450Z,31.15
2022-12-12T19:06:20.477Z,23.23
2022-12-12T19:08:47.371Z,22.75
2022-12-12T19:11:15.023Z,22.65
2022-12-12T19:13:42.933Z,22.25
2022-12-12T19:16:15.493Z,22.50
2022-12-12T19:18:42.769Z,20.85
2022-12-12T19:21:19.242Z,21.55
2022-12-12T19:23:47.017Z,19.90
2022-12-12T19:26:19.868Z,30.02
2022-12-12T19:28:47.614Z,19.48
2022-12-12T19:31:16.421Z,17.55
2022-12-12T19:33:44.462Z,18.70
2022-12-12T19:36:14.366Z,19.13
2022-12-12T19:38:41.187Z,22.15
2022-12-12T19:41:09.374Z,20.65
2022-12-12T19:43:36.136Z,19.48
2022-12-12T19:46:06.110Z,19.75
2022-12-12T19:48:33.211Z,19.55
2022-12-12T19:51:10.679Z,14.90
2022-12-12T19:56:05.753Z,16.33
2022-12-12T19:58:38.170Z,37.53
2022-12-12T20:01:07.734Z,37.25
2022-12-12T20:03:34.564Z,30.95
2022-12-12T20:06:07.605Z,29.08
2022-12-12T20:08:35.162Z,29.95
2022-12-12T20:11:06.898Z,35.17
2022-12-12T20:13:33.529Z,31.75
2022-12-12T20:16:07.165Z,25.48
2022-12-12T20:18:33.888Z,19.40
2022-12-12T20:21:03.381Z,23.58
2022-12-12T20:23:32.049Z,26.65
2022-12-12T20:26:01.576Z,28.83
2022-12-12T20:28:28.094Z,25.63
2022-12-12T20:31:08.318Z,39.45
2022-12-12T20:33:36.152Z,31.42
2022-12-12T20:36:08.251Z,34.20
2022-12-12T20:38:37.047Z,37.28
2022-12-12T20:41:26.623Z,30.00
2022-12-12T20:43:54.953Z,30.45
2022-12-12T20:46:30.781Z,27.42
2022-12-12T20:48:58.508Z,43.33
2022-12-12T20:51:53.353Z,36.47
2022-12-12T20:54:17.265Z,36.72
2022-12-12T20:56:46.438Z,31.83
2022-12-12T20:59:14.291Z,25.55
2022-12-12T21:01:41.356Z,22.30
2022-12-12T21:04:11.140Z,21.65
2022-12-12T21:06:40.340Z,22.95
2022-12-12T21:09:09.930Z,28.08
2022-12-12T21:11:37.924Z,31.27
2022-12-12T21:14:05.874Z,33.03
2022-12-12T21:16:36.177Z,32.67
2022-12-12T21:19:05.945Z,38.25
2022-12-12T21:21:32.622Z,30.90
2022-12-12T21:23:59.849Z,37.38
2022-12-12T21:26:29.438Z,29.95
2022-12-12T21:28:56.702Z,23.63
2022-12-12T21:31:26.277Z,25.33
2022-12-12T21:33:53.390Z,22.92
2022-12-12T21:36:22.866Z,24.38
2022-12-12T21:38:50.978Z,34.60
2022-12-12T21:41:20.235Z,26.98
2022-12-12T21:43:47.486Z,36.35
2022-12-12T21:46:17.959Z,43.13
2022-12-12T21:48:44.552Z,43.22
2022-12-12T21:51:16.481Z,32.72
2022-12-12T21:53:43.173Z,48.28
2022-12-12T21:56:16.257Z,46.53
2022-12-12T21:58:44.690Z,43.42
2022-12-12T22:01:18.254Z,48.72
2022-12-12T22:03:46.742Z,37.10
2022-12-12T22:06:24.388Z,29.88
2022-12-12T22:08:51.295Z,36.97
2022-12-12T22:11:33.975Z,42.50
2022-12-12T22:14:06.790Z,41.22
2022-12-12T22:16:34.069Z,41.55
2022-12-12T22:19:05.838Z,43.05
2022-12-12T22:21:33.307Z,40.67
2022-12-12T22:23:59.887Z,40.63
2022-12-12T22:26:35.153Z,41.55
2022-12-12T22:29:07.890Z,33.65
2022-12-12T22:31:37.538Z,37.22
2022-12-12T22:34:12.737Z,28.27
2022-12-12T22:36:40.491Z,42.47
2022-12-12T22:39:10.516Z,38.22
2022-12-12T22:41:37.203Z,32.58
2022-12-12T22:44:05.870Z,36.90
2022-12-12T22:46:33.417Z,37.97
2022-12-12T22:49:01.376Z,40.97
2022-12-12T22:51:32.995Z,39.65
2022-12-12T22:54:02.716Z,35.55
2022-12-12T22:56:30.662Z,33.58
2022-12-12T22:58:57.239Z,28.17
2022-12-12T23:01:24.765Z,23.92
2022-12-12T23:03:52.155Z,24.55
2022-12-12T23:06:25.120Z,21.45
2022-12-12T23:08:54.539Z,21.20
2022-12-12T23:11:23.612Z,20.13
2022-12-12T23:13:50.839Z,29.27
2022-12-12T23:16:19.946Z,22.30
2022-12-12T23:18:48.176Z,23.35
2022-12-12T23:21:17.712Z,23.48
2022-12-12T23:23:45.273Z,18.20
2022-12-12T23:26:14.905Z,20.85
2022-12-12T23:28:42.030Z,31.05
2022-12-12T23:31:14.969Z,34.70
2022-12-12T23:33:41.994Z,40.22
2022-12-12T23:36:10.236Z,49.50
2022-12-12T23:38:37.400Z,45.40
2022-12-12T23:41:05.437Z,38.50
2022-12-12T23:43:32.603Z,28.40
2022-12-12T23:46:08.231Z,29.35
2022-12-12T23:48:35.487Z,24.23
2022-12-12T23:51:02.165Z,26.13
2022-12-12T23:53:32.452Z,28.35
2022-12-12T23:56:03.559Z,17.67
2022-12-12T23:58:30.029Z,19.90
